Time;durP1;ratioP1;P1;durP2;ratioP2;P2;SDS_P1;SDS_P2;PMS_P1;PMS_P2;Temp;Humidity;BMP_temperature;BMP_pressure;BME280_temperature;BME280_humidity;BME280_pressure;Samples;Min_cycle;Max_cycle;Signal;HPM_P1;HPM_P2
2023/05/22 00:01:41;;;;;;;8.00;6.73;;;14.00;99.90;;;;;;5029930;28;20468;-71
2023/05/22 00:04:08;;;;;;;8.30;7.10;;;14.00;99.90;;;;;;5009817;28;20515;-72
2023/05/22 00:06:35;;;;;;;8.40;7.50;;;14.00;99.90;;;;;;5009855;28;20531;-72
2023/05/22 00:09:04;;;;;;;9.10;7.63;;;14.00;99.90;;;;;;5009656;28;20527;-72
2023/05/22 00:11:33;;;;;;;10.17;7.07;;;13.90;99.90;;;;;;5010424;28;20461;-72
2023/05/22 00:14:00;;;;;;;8.70;7.17;;;13.90;99.90;;;;;;5010246;28;20496;-72
2023/05/22 00:16:27;;;;;;;8.60;7.47;;;13.90;99.90;;;;;;5010171;28;20492;-72
2023/05/22 00:18:56;;;;;;;8.80;7.80;;;13.80;99.90;;;;;;5009836;28;20986;-71
2023/05/22 00:21:23;;;;;;;8.17;6.73;;;13.80;99.90;;;;;;5010341;28;20461;-72
2023/05/22 00:23:50;;;;;;;9.63;7.20;;;13.80;99.90;;;;;;5010282;28;20461;-72
2023/05/22 00:26:18;;;;;;;7.80;7.07;;;13.80;99.90;;;;;;5010133;28;20495;-72
2023/05/22 00:28:45;;;;;;;8.40;7.20;;;13.80;99.90;;;;;;5009345;28;20469;-72
2023/05/22 00:31:11;;;;;;;9.20;7.47;;;13.80;99.90;;;;;;5010271;28;20473;-72
2023/05/22 00:33:38;;;;;;;7.83;6.90;;;13.70;99.90;;;;;;5010082;28;20852;-71
2023/05/22 00:36:05;;;;;;;9.70;7.60;;;13.70;99.90;;;;;;5009955;28;20484;-72
2023/05/22 00:38:33;;;;;;;10.00;7.07;;;13.70;99.90;;;;;;5009672;28;20865;-70
2023/05/22 00:41:00;;;;;;;9.80;7.03;;;13.60;99.90;;;;;;5010013;28;20515;-72
2023/05/22 00:43:29;;;;;;;9.13;7.70;;;13.60;99.90;;;;;;5009889;28;20468;-72
2023/05/22 00:45:56;;;;;;;9.27;8.30;;;13.70;99.90;;;;;;5009984;28;20536;-72
2023/05/22 00:48:22;;;;;;;12.93;7.80;;;13.60;99.90;;;;;;5009489;28;20481;-71
2023/05/22 00:50:50;;;;;;;8.70;7.80;;;13.60;99.90;;;;;;5009941;28;20465;-71
2023/05/22 00:53:19;;;;;;;8.97;6.93;;;13.60;99.90;;;;;;5010090;28;20461;-72
2023/05/22 00:55:45;;;;;;;8.47;7.63;;;13.60;99.90;;;;;;5009621;28;20485;-71
2023/05/22 00:58:15;;;;;;;9.17;7.70;;;13.60;99.90;;;;;;5009461;28;20485;-71
2023/05/22 01:00:45;;;;;;;9.87;7.70;;;13.50;99.90;;;;;;5009719;28;20515;-72
2023/05/22 01:03:12;;;;;;;8.07;7.17;;;13.50;99.90;;;;;;5002380;28;20842;-71
2023/05/22 01:05:40;;;;;;;10.00;7.67;;;13.50;99.90;;;;;;5009687;28;20464;-72
2023/05/22 01:08:08;;;;;;;9.03;7.90;;;13.40;99.90;;;;;;5009040;28;20485;-71
2023/05/22 01:10:36;;;;;;;10.57;7.83;;;13.40;99.90;;;;;;5009580;28;20472;-71
2023/05/22 01:13:14;;;;;;;10.40;9.17;;;13.40;99.90;;;;;;5009754;28;20476;-71
2023/05/22 01:15:47;;;;;;;10.07;7.80;;;13.40;99.90;;;;;;5009609;28;20516;-72
2023/05/22 01:18:20;;;;;;;8.53;7.57;;;13.30;99.90;;;;;;5009302;28;20557;-72
2023/05/22 01:20:53;;;;;;;9.97;7.50;;;13.30;99.90;;;;;;5012695;28;20465;-70
2023/05/22 01:23:54;;;;;;;9.00;8.10;;;13.30;99.90;;;;;;5013257;28;20468;-72
2023/05/22 01:26:58;;;;;;;10.00;8.13;;;13.30;99.90;;;;;;5012986;28;20457;-71
2023/05/22 01:29:37;;;;;;;8.93;8.00;;;13.30;99.90;;;;;;5012354;28;20469;-71
2023/05/22 01:32:07;;;;;;;8.57;7.57;;;13.30;99.90;;;;;;5012873;28;20477;-72
2023/05/22 01:34:35;;;;;;;11.23;8.10;;;13.20;99.90;;;;;;5012745;28;20468;-72
2023/05/22 01:37:03;;;;;;;8.73;7.83;;;13.20;99.90;;;;;;5012742;28;20492;-71
2023/05/22 01:39:31;;;;;;;9.03;8.00;;;13.20;99.90;;;;;;5012116;28;20472;-71
2023/05/22 01:41:58;;;;;;;10.17;7.90;;;13.20;99.90;;;;;;5012772;28;20465;-72
2023/05/22 01:44:25;;;;;;;10.20;8.07;;;13.20;99.90;;;;;;5012682;28;20469;-71
2023/05/22 01:46:52;;;;;;;12.27;8.60;;;13.10;99.90;;;;;;5012752;28;20481;-71
2023/05/22 01:49:20;;;;;;;8.63;7.70;;;13.10;99.90;;;;;;5012245;28;20825;-71
2023/05/22 01:51:52;;;;;;;11.50;8.70;;;13.10;99.90;;;;;;5012297;28;20476;-71
2023/05/22 01:54:24;;;;;;;10.70;9.30;;;13.10;99.90;;;;;;5012660;28;20465;-71
2023/05/22 01:56:55;;;;;;;10.53;8.60;;;13.10;99.90;;;;;;5012368;28;20485;-71
2023/05/22 01:59:29;;;;;;;10.80;9.70;;;13.10;99.90;;;;;;5011892;28;20959;-72
2023/05/22 02:01:59;;;;;;;10.53;9.00;;;13.10;99.90;;;;;;5012303;28;20461;-72
2023/05/22 02:04:29;;;;;;;9.93;8.40;;;13.00;99.90;;;;;;5012336;28;20512;-72
2023/05/22 02:06:59;;;;;;;9.23;8.23;;;13.00;99.90;;;;;;5028810;28;20481;-71
2023/05/22 02:09:29;;;;;;;7.63;6.67;;;13.00;99.90;;;;;;5011577;28;20457;-71
2023/05/22 02:11:57;;;;;;;11.07;8.00;;;13.00;99.90;;;;;;5012181;28;20866;-72
2023/05/22 02:14:25;;;;;;;9.33;7.47;;;13.00;99.90;;;;;;5012143;28;20458;-72
2023/05/22 02:16:52;;;;;;;8.60;7.70;;;13.00;99.90;;;;;;5011966;28;20477;-72
2023/05/22 02:19:19;;;;;;;10.27;7.83;;;13.00;99.90;;;;;;5011746;28;20465;-71
2023/05/22 02:21:47;;;;;;;9.70;7.63;;;13.00;99.90;;;;;;5011925;28;20834;-71
2023/05/22 02:24:14;;;;;;;9.50;7.97;;;13.00;99.90;;;;;;5011987;28;20484;-72
2023/05/22 02:26:41;;;;;;;12.17;8.27;;;13.10;99.90;;;;;;5011771;28;20488;-71
2023/05/22 02:29:08;;;;;;;10.10;8.10;;;13.10;99.90;;;;;;5011269;28;20469;-71
2023/05/22 02:31:35;;;;;;;9.43;8.53;;;13.20;99.90;;;;;;5011367;28;20473;-71
2023/05/22 02:34:04;;;;;;;9.70;8.40;;;13.20;99.90;;;;;;5011572;28;20923;-71
2023/05/22 02:36:30;;;;;;;9.43;8.23;;;13.20;99.90;;;;;;5011585;28;20575;-71
2023/05/22 02:38:58;;;;;;;11.00;8.00;;;13.20;99.90;;;;;;5011122;28;20463;-71
2023/05/22 02:41:25;;;;;;;10.40;8.20;;;13.20;99.90;;;;;;5011518;28;20472;-71
2023/05/22 02:43:52;;;;;;;9.20;8.00;;;13.30;99.90;;;;;;5011613;28;20799;-71
2023/05/22 02:46:19;;;;;;;11.07;8.57;;;13.30;99.90;;;;;;5011647;28;20469;-71
2023/05/22 02:48:46;;;;;;;10.50;8.00;;;13.30;99.90;;;;;;5010909;28;20461;-71
2023/05/22 02:51:12;;;;;;;9.33;8.00;;;13.30;99.90;;;;;;5022866;28;20467;-71
2023/05/22 02:53:40;;;;;;;8.70;7.57;;;13.30;99.90;;;;;;5030955;28;20951;-72
2023/05/22 02:56:10;;;;;;;8.47;7.63;;;13.40;99.90;;;;;;5030815;28;20498;-72
2023/05/22 02:58:37;;;;;;;10.63;8.23;;;13.40;99.90;;;;;;5030760;28;20488;-72
2023/05/22 03:01:05;;;;;;;9.57;8.23;;;13.40;99.90;;;;;;5030913;28;20472;-72
2023/05/22 03:03:32;;;;;;;8.63;7.73;;;13.40;99.90;;;;;;5030813;28;20465;-72
2023/05/22 03:06:00;;;;;;;9.27;8.27;;;13.40;99.90;;;;;;5030830;28;20871;-71
2023/05/22 03:08:28;;;;;;;10.43;8.33;;;13.40;99.90;;;;;;5030150;28;20534;-71
2023/05/22 03:10:55;;;;;;;9.07;8.10;;;13.40;99.90;;;;;;5030683;28;20504;-72
2023/05/22 03:13:23;;;;;;;9.90;7.83;;;13.40;99.90;;;;;;5025656;28;20501;-71
2023/05/22 03:15:50;;;;;;;9.73;8.50;;;13.40;99.90;;;;;;5010955;28;20481;-70
2023/05/22 03:18:17;;;;;;;8.90;8.00;;;13.40;99.90;;;;;;5002673;28;20892;-72
2023/05/22 03:20:43;;;;;;;10.47;7.70;;;13.40;99.90;;;;;;5010533;28;20863;-70
2023/05/22 03:23:11;;;;;;;10.80;9.20;;;13.40;99.90;;;;;;5010707;28;20454;-72
2023/05/22 03:25:38;;;;;;;12.30;8.70;;;13.40;99.90;;;;;;5010434;28;20493;-72
2023/05/22 03:28:05;;;;;;;10.20;8.80;;;13.50;99.90;;;;;;5009784;28;20493;-72
2023/05/22 03:30:33;;;;;;;11.13;8.27;;;13.50;99.90;;;;;;5004681;28;20495;-70
2023/05/22 03:33:00;;;;;;;9.13;7.93;;;13.50;99.90;;;;;;5025173;28;20464;-72
2023/05/22 03:35:27;;;;;;;8.33;7.47;;;13.50;99.90;;;;;;5026518;28;20464;-71
2023/05/22 03:37:53;;;;;;;10.80;9.23;;;13.50;99.90;;;;;;5026181;28;20863;-72
2023/05/22 03:40:20;;;;;;;9.10;7.70;;;13.50;99.90;;;;;;5024435;28;20460;-72
2023/05/22 03:42:48;;;;;;;9.00;7.00;;;13.50;99.90;;;;;;5001376;28;20475;-72
2023/05/22 03:45:15;;;;;;;10.43;7.93;;;13.50;99.90;;;;;;5006733;28;20498;-71
2023/05/22 03:47:43;;;;;;;8.80;7.67;;;13.50;99.90;;;;;;4995689;28;21005;-71
2023/05/22 03:50:10;;;;;;;10.00;7.97;;;13.50;99.90;;;;;;5000224;28;20818;-70
2023/05/22 03:52:37;;;;;;;10.60;8.30;;;13.50;99.90;;;;;;5007205;28;20472;-71
2023/05/22 03:55:04;;;;;;;9.67;7.93;;;13.50;99.90;;;;;;5009905;28;20465;-71
2023/05/22 03:57:31;;;;;;;10.73;8.17;;;13.40;99.90;;;;;;5009894;28;20489;-71
2023/05/22 04:00:05;;;;;;;9.93;8.10;;;13.40;99.90;;;;;;5009837;28;20460;-71
2023/05/22 04:02:31;;;;;;;8.90;8.00;;;13.40;99.90;;;;;;5008138;28;20465;-71
2023/05/22 04:05:00;;;;;;;11.10;8.60;;;13.40;99.90;;;;;;5001912;28;20462;-71
2023/05/22 04:07:26;;;;;;;9.13;7.87;;;13.40;99.90;;;;;;5002789;28;20485;-72
2023/05/22 04:09:53;;;;;;;10.00;8.63;;;13.40;99.90;;;;;;4998243;28;20469;-70
2023/05/22 04:12:20;;;;;;;9.07;7.20;;;13.40;99.90;;;;;;5005024;28;21346;-71
2023/05/22 04:14:46;;;;;;;10.33;8.30;;;13.40;99.90;;;;;;5010104;28;20461;-70
2023/05/22 04:17:13;;;;;;;8.23;7.33;;;13.30;99.90;;;;;;5008899;28;20489;-72
2023/05/22 04:19:40;;;;;;;9.97;8.30;;;13.30;99.90;;;;;;5013906;28;20472;-75
2023/05/22 04:22:08;;;;;;;9.40;8.40;;;13.30;99.90;;;;;;5009206;28;20461;-76
2023/05/22 04:24:35;;;;;;;8.67;7.77;;;13.30;99.90;;;;;;5009278;28;20492;-72
2023/05/22 04:27:01;;;;;;;8.27;7.37;;;13.30;99.90;;;;;;5009937;28;20481;-72
2023/05/22 04:29:28;;;;;;;10.47;7.90;;;13.30;99.90;;;;;;5009143;28;20461;-73
2023/05/22 04:31:55;;;;;;;9.47;8.50;;;13.30;99.90;;;;;;5006411;28;20878;-73
2023/05/22 04:34:21;;;;;;;11.90;7.93;;;13.30;99.90;;;;;;5009731;28;20473;-73
2023/05/22 04:36:48;;;;;;;10.90;7.80;;;13.40;99.90;;;;;;5010335;28;20488;-76
2023/05/22 04:39:16;;;;;;;9.50;8.20;;;13.40;99.90;;;;;;5009872;28;20587;-75
2023/05/22 04:41:43;;;;;;;8.13;6.90;;;13.50;99.90;;;;;;5024643;28;20488;-74
2023/05/22 04:44:09;;;;;;;10.43;7.97;;;13.50;99.90;;;;;;5029506;28;20821;-74
2023/05/22 04:46:37;;;;;;;8.57;7.67;;;13.50;99.90;;;;;;5029569;28;20487;-74
2023/05/22 04:49:03;;;;;;;11.37;8.50;;;13.50;99.90;;;;;;5028693;28;20974;-72
2023/05/22 04:51:31;;;;;;;10.40;8.20;;;13.60;99.90;;;;;;5016600;28;20461;-73
2023/05/22 04:53:58;;;;;;;8.50;7.63;;;13.60;99.90;;;;;;5012783;28;20461;-79
2023/05/22 04:56:26;;;;;;;9.53;8.53;;;13.70;99.90;;;;;;5014516;28;20561;-77
2023/05/22 04:58:54;;;;;;;10.37;8.17;;;13.80;99.90;;;;;;5013374;28;20469;-74
2023/05/22 05:01:21;;;;;;;8.80;7.90;;;13.90;99.90;;;;;;5013624;28;20496;-74
2023/05/22 05:03:48;;;;;;;9.07;7.93;;;14.00;99.90;;;;;;5022095;28;20461;-75
2023/05/22 05:06:16;;;;;;;10.50;7.87;;;14.00;99.90;;;;;;5013565;28;20465;-73
2023/05/22 05:08:43;;;;;;;11.10;8.37;;;14.10;99.90;;;;;;5012561;28;20940;-72
2023/05/22 05:11:10;;;;;;;9.20;8.23;;;14.20;99.90;;;;;;5013035;28;20464;-72
2023/05/22 05:13:38;;;;;;;10.13;8.87;;;14.30;99.90;;;;;;5013107;28;20461;-72
2023/05/22 05:16:05;;;;;;;11.90;8.20;;;14.30;99.90;;;;;;5021433;28;20465;-72
2023/05/22 05:18:32;;;;;;;9.00;8.00;;;14.50;99.90;;;;;;5012653;28;20464;-73
2023/05/22 05:20:58;;;;;;;9.30;8.07;;;14.60;99.90;;;;;;5013064;28;20457;-74
2023/05/22 05:23:25;;;;;;;10.70;8.27;;;14.60;99.90;;;;;;5017362;28;20483;-74
2023/05/22 05:25:52;;;;;;;8.70;7.40;;;14.70;99.90;;;;;;5033161;28;20824;-74
2023/05/22 05:28:19;;;;;;;9.67;8.67;;;14.70;99.90;;;;;;5029171;28;20484;-72
2023/05/22 05:30:47;;;;;;;12.77;9.40;;;14.80;99.90;;;;;;5013833;28;20472;-74
2023/05/22 05:33:14;;;;;;;11.60;9.30;;;14.80;99.90;;;;;;5024348;28;20456;-76
2023/05/22 05:35:41;;;;;;;11.63;9.10;;;14.90;99.90;;;;;;5033090;28;20469;-74
2023/05/22 05:38:07;;;;;;;10.67;8.93;;;15.00;99.90;;;;;;5023377;28;20535;-74
2023/05/22 05:40:34;;;;;;;13.13;9.60;;;15.10;99.90;;;;;;5013647;28;20458;-75
2023/05/22 05:43:01;;;;;;;9.17;8.20;;;15.20;99.90;;;;;;5030031;28;20461;-75
2023/05/22 05:45:27;;;;;;;10.63;9.40;;;15.30;99.90;;;;;;5032861;28;20468;-74
2023/05/22 05:47:55;;;;;;;9.83;8.80;;;15.40;99.90;;;;;;5017180;28;20900;-72
2023/05/22 05:50:22;;;;;;;11.50;8.70;;;15.60;99.90;;;;;;5011939;28;20461;-72
2023/05/22 05:52:49;;;;;;;10.70;9.57;;;15.70;99.90;;;;;;5027896;28;20526;-74
2023/05/22 05:55:16;;;;;;;13.23;9.83;;;15.80;99.90;;;;;;5029985;28;20471;-72
2023/05/22 05:57:42;;;;;;;13.00;9.90;;;16.00;99.90;;;;;;5012519;28;20523;-73
2023/05/22 06:00:10;;;;;;;11.13;10.03;;;16.10;99.90;;;;;;5012228;28;20986;-72
2023/05/22 06:02:37;;;;;;;10.43;8.53;;;16.20;99.90;;;;;;5013629;28;20492;-75
2023/05/22 06:05:07;;;;;;;9.97;8.97;;;16.40;99.90;;;;;;5011836;28;20465;-74
2023/05/22 06:07:36;;;;;;;10.27;8.50;;;16.60;99.90;;;;;;5025327;28;20856;-73
2023/05/22 06:10:04;;;;;;;13.97;10.00;;;16.70;99.90;;;;;;5032102;28;20461;-73
2023/05/22 06:12:30;;;;;;;11.10;8.70;;;16.90;99.90;;;;;;5016506;28;20830;-72
2023/05/22 06:14:57;;;;;;;8.90;7.50;;;17.00;99.90;;;;;;5032082;28;20487;-79
2023/05/22 06:17:24;;;;;;;11.43;8.60;;;17.20;99.90;;;;;;5031491;28;20480;-76
2023/05/22 06:19:51;;;;;;;9.40;8.37;;;17.30;99.90;;;;;;5031912;28;20543;-74
2023/05/22 06:22:19;;;;;;;9.70;7.97;;;17.50;99.90;;;;;;5029748;28;20464;-75
2023/05/22 06:24:46;;;;;;;9.17;7.20;;;17.60;99.90;;;;;;5012368;28;20468;-74
2023/05/22 06:27:13;;;;;;;10.03;8.10;;;17.70;99.90;;;;;;5013584;28;20481;-73
2023/05/22 06:29:40;;;;;;;10.87;8.30;;;17.90;99.90;;;;;;5031206;28;20558;-72
2023/05/22 06:32:07;;;;;;;8.07;7.27;;;18.00;99.90;;;;;;5032207;28;20464;-74
2023/05/22 06:34:34;;;;;;;10.10;8.57;;;18.10;99.90;;;;;;5021659;28;20460;-78
2023/05/22 06:37:02;;;;;;;9.00;7.47;;;18.20;99.90;;;;;;5025026;28;20952;-77
2023/05/22 06:39:30;;;;;;;7.70;6.90;;;18.30;99.90;;;;;;5004026;28;20457;-74
2023/05/22 06:41:57;;;;;;;8.60;7.60;;;18.40;99.90;;;;;;5012033;28;20488;-73
2023/05/22 06:44:24;;;;;;;7.10;6.30;;;18.50;99.90;;;;;;5011611;28;20916;-72
2023/05/22 06:46:51;;;;;;;8.50;6.80;;;18.60;99.90;;;;;;5011646;28;20477;-73
2023/05/22 06:49:17;;;;;;;8.60;7.70;;;18.70;99.90;;;;;;5011826;28;20468;-75
2023/05/22 06:51:44;;;;;;;12.30;8.20;;;18.80;99.90;;;;;;5012443;28;20810;-75
2023/05/22 06:54:12;;;;;;;8.60;7.67;;;19.00;99.90;;;;;;5011824;28;20465;-76
2023/05/22 06:56:40;;;;;;;8.80;7.90;;;19.20;99.90;;;;;;5016493;28;20530;-72
2023/05/22 06:59:07;;;;;;;9.40;8.40;;;19.40;99.90;;;;;;5031053;28;20456;-73
2023/05/22 07:01:34;;;;;;;9.37;8.07;;;19.60;99.90;;;;;;5031693;28;20526;-74
2023/05/22 07:04:03;;;;;;;8.00;7.20;;;19.70;99.90;;;;;;5024420;28;20472;-74
2023/05/22 07:06:32;;;;;;;9.00;7.93;;;19.90;99.90;;;;;;5004294;28;20854;-75
2023/05/22 07:08:59;;;;;;;8.60;7.50;;;20.00;99.90;;;;;;5011937;28;20471;-76
2023/05/22 07:11:26;;;;;;;8.80;7.90;;;20.10;99.90;;;;;;5012120;28;20956;-76
2023/05/22 07:13:54;;;;;;;9.70;8.47;;;20.10;99.90;;;;;;5018695;28;20463;-75
2023/05/22 07:16:22;;;;;;;8.83;7.67;;;20.10;99.90;;;;;;5031108;28;20471;-73
2023/05/22 07:18:48;;;;;;;9.30;7.53;;;20.20;99.90;;;;;;5030504;28;20485;-76
2023/05/22 07:21:15;;;;;;;9.63;8.60;;;20.20;99.90;;;;;;5013160;28;20468;-73
2023/05/22 07:23:42;;;;;;;8.70;7.90;;;20.20;99.90;;;;;;5024593;28;20457;-78
2023/05/22 07:26:09;;;;;;;8.70;7.77;;;20.20;99.90;;;;;;5022894;28;20469;-76
2023/05/22 07:28:36;;;;;;;9.03;7.50;;;20.20;99.90;;;;;;5030653;28;20456;-75
2023/05/22 07:31:04;;;;;;;9.27;7.93;;;20.10;99.90;;;;;;5031486;28;20980;-79
2023/05/22 07:33:31;;;;;;;8.13;7.37;;;20.10;99.90;;;;;;5004428;28;20516;-75
2023/05/22 07:35:57;;;;;;;9.20;8.23;;;20.10;99.90;;;;;;5027195;28;20834;-75
2023/05/22 07:38:24;;;;;;;8.33;7.53;;;19.80;99.90;;;;;;5027472;28;20500;-73
2023/05/22 07:40:51;;;;;;;7.77;6.97;;;19.60;99.90;;;;;;5017606;28;20510;-76
2023/05/22 07:43:17;;;;;;;9.00;7.63;;;19.60;99.90;;;;;;5030804;28;20460;-76
2023/05/22 07:45:44;;;;;;;7.70;7.00;;;19.60;99.90;;;;;;5030576;28;20469;-73
2023/05/22 07:48:12;;;;;;;8.67;7.77;;;19.70;99.90;;;;;;5021467;28;20477;-76
2023/05/22 07:50:43;;;;;;;7.90;6.40;;;19.60;99.90;;;;;;5015726;28;20467;-75
2023/05/22 07:53:10;;;;;;;7.37;6.53;;;19.50;99.90;;;;;;5030810;28;20461;-75
2023/05/22 07:55:37;;;;;;;8.70;7.73;;;19.30;99.90;;;;;;5030555;28;20461;-75
2023/05/22 07:58:04;;;;;;;7.27;6.57;;;19.30;99.90;;;;;;5030433;28;20565;-76
2023/05/22 08:00:31;;;;;;;9.07;7.10;;;19.20;99.90;;;;;;5010948;28;20476;-75
2023/05/22 08:02:57;;;;;;;7.97;7.17;;;19.20;99.90;;;;;;5011168;28;20497;-76
2023/05/22 08:05:25;;;;;;;7.87;6.87;;;19.20;99.90;;;;;;5010120;28;20488;-72
2023/05/22 08:07:52;;;;;;;8.30;7.50;;;19.20;99.90;;;;;;5016555;28;20484;-72
2023/05/22 08:10:19;;;;;;;7.73;7.00;;;19.30;99.90;;;;;;5029774;28;20460;-76
2023/05/22 08:12:46;;;;;;;7.70;6.73;;;19.40;99.90;;;;;;5030196;28;20486;-77
2023/05/22 08:15:12;;;;;;;8.00;6.20;;;19.50;99.90;;;;;;5029755;28;20467;-77
2023/05/22 08:17:39;;;;;;;9.07;7.17;;;19.60;99.90;;;;;;5025290;28;20488;-75
2023/05/22 08:20:07;;;;;;;7.03;6.33;;;19.70;99.90;;;;;;5010298;28;20625;-75
2023/05/22 08:22:36;;;;;;;8.33;7.47;;;19.80;99.90;;;;;;5010043;28;20469;-71
2023/05/22 08:25:03;;;;;;;9.83;7.43;;;20.00;99.90;;;;;;5010491;28;20457;-72
2023/05/22 08:27:30;;;;;;;8.47;7.23;;;20.10;99.90;;;;;;5026740;28;20787;-77
2023/05/22 08:29:57;;;;;;;8.93;7.90;;;20.10;99.90;;;;;;5020714;28;20468;-72
2023/05/22 08:32:24;;;;;;;8.40;7.60;;;20.30;99.90;;;;;;5033806;28;20472;-75
2023/05/22 08:34:50;;;;;;;8.50;7.60;;;20.40;99.90;;;;;;5033495;28;20518;-72
2023/05/22 08:37:17;;;;;;;8.90;8.00;;;20.50;99.90;;;;;;5015386;28;20494;-73
2023/05/22 08:39:45;;;;;;;7.73;6.93;;;20.70;99.90;;;;;;5013904;28;20472;-73
2023/05/22 08:42:12;;;;;;;8.47;7.57;;;20.70;99.90;;;;;;5013560;28;20468;-72
2023/05/22 08:44:39;;;;;;;8.10;7.30;;;21.00;99.90;;;;;;5013795;28;20481;-74
2023/05/22 08:47:10;;;;;;;9.00;7.53;;;21.40;99.90;;;;;;5009506;28;20543;-73
2023/05/22 08:49:38;;;;;;;6.77;6.17;;;21.80;99.90;;;;;;5005266;28;20501;-77
2023/05/22 08:52:11;;;;;;;8.03;7.20;;;22.30;99.90;;;;;;5014302;28;20552;-73
2023/05/22 08:54:41;;;;;;;8.10;7.30;;;22.70;99.90;;;;;;5005831;28;20495;-73
2023/05/22 08:57:09;;;;;;;8.13;7.33;;;22.90;99.90;;;;;;5013425;28;20482;-75
2023/05/22 08:59:38;;;;;;;7.10;6.40;;;23.00;99.90;;;;;;5004952;28;20461;-74
2023/05/22 09:02:06;;;;;;;8.30;7.50;;;23.20;99.90;;;;;;5021933;28;20462;-74
2023/05/22 09:04:32;;;;;;;7.53;6.83;;;23.30;99.90;;;;;;5033272;28;20460;-75
2023/05/22 09:07:04;;;;;;;8.20;6.97;;;23.50;99.90;;;;;;5027004;28;20859;-76
2023/05/22 09:09:31;;;;;;;8.53;7.63;;;23.60;99.90;;;;;;5023293;28;20469;-76
2023/05/22 09:11:58;;;;;;;7.97;7.17;;;23.60;99.90;;;;;;5035068;28;21010;-74
2023/05/22 09:14:26;;;;;;;7.80;7.00;;;23.90;99.90;;;;;;5025820;28;20970;-76
2023/05/22 09:16:53;;;;;;;9.60;7.17;;;24.10;99.90;;;;;;5033009;28;20485;-75
2023/05/22 09:19:20;;;;;;;7.70;7.00;;;24.30;99.90;;;;;;5032378;28;20895;-71
2023/05/22 09:21:47;;;;;;;7.10;6.37;;;24.50;99.90;;;;;;5018736;28;20477;-72
2023/05/22 09:24:14;;;;;;;7.37;6.67;;;24.60;99.90;;;;;;5014254;28;20520;-71
2023/05/22 09:26:41;;;;;;;8.63;7.23;;;24.90;99.90;;;;;;5012751;28;20485;-71
2023/05/22 09:29:09;;;;;;;8.27;7.37;;;25.00;99.90;;;;;;5025346;28;20468;-71
2023/05/22 09:31:41;;;;;;;7.43;6.63;;;25.20;99.90;;;;;;5032215;28;20461;-71
2023/05/22 09:34:09;;;;;;;7.50;6.80;;;25.30;99.90;;;;;;5032561;28;20553;-71
2023/05/22 09:36:36;;;;;;;6.70;5.90;;;25.30;99.90;;;;;;5032463;28;20484;-71
2023/05/22 09:39:05;;;;;;;7.50;6.80;;;25.10;99.90;;;;;;5016298;28;20830;-71
2023/05/22 09:41:35;;;;;;;8.97;7.93;;;24.90;99.90;;;;;;5022797;28;20457;-71
2023/05/22 09:44:11;;;;;;;8.20;7.40;;;24.60;99.90;;;;;;5032411;28;20471;-71
2023/05/22 09:46:45;;;;;;;8.23;7.43;;;24.50;99.90;;;;;;5007366;28;20491;-71
2023/05/22 09:49:12;;;;;;;7.37;6.60;;;24.70;99.90;;;;;;5032228;28;20465;-71
2023/05/22 09:51:41;;;;;;;6.87;6.17;;;24.90;99.90;;;;;;5032185;28;20490;-71
2023/05/22 09:54:11;;;;;;;8.00;7.20;;;25.20;99.90;;;;;;5024530;28;20527;-72
2023/05/22 09:56:40;;;;;;;7.60;6.90;;;25.40;99.90;;;;;;5032075;28;20854;-71
2023/05/22 09:59:09;;;;;;;7.73;7.00;;;25.70;99.90;;;;;;5031586;28;20553;-72
2023/05/22 10:01:38;;;;;;;7.43;6.73;;;26.10;99.90;;;;;;5031587;28;20460;-72
2023/05/22 10:04:10;;;;;;;7.13;6.43;;;26.30;99.90;;;;;;5031952;28;20469;-71
2023/05/22 10:06:39;;;;;;;7.67;6.90;;;26.50;99.90;;;;;;5031854;28;20494;-72
2023/05/22 10:09:14;;;;;;;7.00;6.40;;;26.70;99.90;;;;;;5031534;28;20462;-70
2023/05/22 10:11:41;;;;;;;7.53;6.77;;;26.80;99.90;;;;;;5031789;28;20462;-69
2023/05/22 10:14:09;;;;;;;7.67;6.83;;;27.10;99.90;;;;;;5032196;28;20462;-71
2023/05/22 10:16:37;;;;;;;7.57;6.83;;;27.10;99.90;;;;;;5031389;28;20492;-71
2023/05/22 10:19:07;;;;;;;7.50;6.90;;;27.10;99.90;;;;;;5031436;28;20514;-71
2023/05/22 10:21:35;;;;;;;8.10;7.30;;;27.30;99.90;;;;;;5031430;28;20469;-71
2023/05/22 10:24:03;;;;;;;7.70;6.77;;;27.20;99.90;;;;;;5031275;28;20463;-71
2023/05/22 10:26:31;;;;;;;7.93;7.23;;;27.30;99.90;;;;;;5030990;28;20902;-71
2023/05/22 10:29:03;;;;;;;7.13;6.50;;;27.50;99.90;;;;;;5031163;28;20465;-71
2023/05/22 10:31:41;;;;;;;7.67;6.97;;;27.40;99.90;;;;;;5013119;28;20503;-72
2023/05/22 10:34:15;;;;;;;7.23;6.50;;;27.20;99.90;;;;;;5011750;28;20467;-71
2023/05/22 10:36:51;;;;;;;7.27;6.50;;;27.30;99.90;;;;;;5023445;28;20565;-71
2023/05/22 10:39:33;;;;;;;6.53;5.93;;;27.30;99.90;;;;;;5028310;28;21001;-71
2023/05/22 10:42:00;;;;;;;6.37;5.70;;;27.30;99.90;;;;;;5031240;28;20483;-70
2023/05/22 10:44:27;;;;;;;7.13;6.43;;;27.40;99.90;;;;;;5030840;28;20467;-70
2023/05/22 10:46:53;;;;;;;7.53;6.80;;;27.80;99.90;;;;;;5031255;28;21035;-71
2023/05/22 10:49:23;;;;;;;7.03;6.37;;;28.00;99.90;;;;;;5030330;28;20593;-70
2023/05/22 10:51:55;;;;;;;7.07;6.37;;;28.00;99.90;;;;;;5030790;28;20491;-71
2023/05/22 10:54:38;;;;;;;7.37;6.70;;;28.10;99.90;;;;;;5030642;28;20881;-71
2023/05/22 10:57:10;;;;;;;8.10;7.30;;;28.50;99.90;;;;;;5030965;28;20494;-71
2023/05/22 10:59:37;;;;;;;7.33;6.63;;;28.60;99.90;;;;;;5029943;28;20480;-71
2023/05/22 11:02:06;;;;;;;7.97;7.00;;;28.80;99.90;;;;;;5030857;28;20472;-71
2023/05/22 11:04:34;;;;;;;7.87;6.77;;;29.10;99.90;;;;;;5030617;28;20468;-71
2023/05/22 11:07:06;;;;;;;6.90;6.20;;;29.30;99.90;;;;;;5030619;28;21006;-71
2023/05/22 11:09:34;;;;;;;7.00;6.40;;;29.40;99.90;;;;;;5030061;28;20833;-70
2023/05/22 11:12:21;;;;;;;7.80;7.00;;;29.60;99.90;;;;;;5030793;28;20469;-71
2023/05/22 11:14:55;;;;;;;7.10;6.40;;;29.90;99.90;;;;;;5030663;28;20544;-71
2023/05/22 11:17:24;;;;;;;6.27;5.70;;;30.00;99.90;;;;;;5030233;28;20479;-71
2023/05/22 11:20:04;;;;;;;8.70;6.07;;;30.10;99.90;;;;;;5029833;28;20476;-71
2023/05/22 11:22:36;;;;;;;8.07;6.43;;;30.20;99.90;;;;;;5020114;28;20527;-71
2023/05/22 11:25:08;;;;;;;7.40;6.60;;;30.30;99.90;;;;;;5010438;28;20465;-71
2023/05/22 11:27:35;;;;;;;8.10;7.30;;;30.20;99.90;;;;;;5010473;28;20492;-71
2023/05/22 11:30:02;;;;;;;8.43;6.93;;;30.60;99.90;;;;;;5010086;28;20468;-72
2023/05/22 11:32:29;;;;;;;8.40;7.60;;;31.00;99.90;;;;;;5010185;28;20557;-71
2023/05/22 11:34:57;;;;;;;7.90;7.20;;;31.30;99.90;;;;;;5010525;28;20472;-71
2023/05/22 11:37:26;;;;;;;7.90;6.93;;;31.50;99.90;;;;;;5009641;28;20489;-71
2023/05/22 11:39:56;;;;;;;7.27;6.57;;;31.40;99.90;;;;;;5009882;28;20552;-70
2023/05/22 11:42:23;;;;;;;7.10;6.40;;;31.70;99.90;;;;;;5010077;28;20472;-71
2023/05/22 11:44:50;;;;;;;8.00;6.60;;;31.70;99.40;;;;;;5010236;28;20476;-71
2023/05/22 11:47:18;;;;;;;7.90;7.10;;;31.70;99.90;;;;;;5010126;28;20481;-71
2023/05/22 11:49:44;;;;;;;7.57;6.47;;;32.00;99.90;;;;;;5012842;28;20456;-71
2023/05/22 11:52:11;;;;;;;7.20;6.57;;;32.10;99.90;;;;;;5029698;28;20468;-71
2023/05/22 11:54:39;;;;;;;6.73;6.13;;;32.10;99.90;;;;;;5029945;28;20813;-71
2023/05/22 11:57:07;;;;;;;7.73;6.93;;;32.10;99.90;;;;;;5030018;28;20480;-71
2023/05/22 11:59:34;;;;;;;7.63;6.90;;;32.20;99.90;;;;;;5028859;28;20484;-71
2023/05/22 12:02:01;;;;;;;6.40;5.90;;;32.10;99.10;;;;;;5029554;28;20496;-71
2023/05/22 12:04:28;;;;;;;6.40;5.80;;;32.20;99.90;;;;;;5028905;28;20467;-71
2023/05/22 12:06:55;;;;;;;9.33;6.30;;;32.40;99.20;;;;;;5029615;28;20484;-71
2023/05/22 12:09:23;;;;;;;7.63;6.87;;;32.10;99.40;;;;;;5028888;28;20471;-71
2023/05/22 12:11:51;;;;;;;7.87;7.20;;;32.20;99.50;;;;;;5029870;28;20460;-71
2023/05/22 12:14:17;;;;;;;6.73;6.13;;;32.00;98.90;;;;;;5029082;28;20468;-71
2023/05/22 12:16:44;;;;;;;8.83;7.17;;;32.20;98.90;;;;;;5029648;28;20488;-71
2023/05/22 12:19:11;;;;;;;7.97;6.97;;;32.30;99.40;;;;;;5029026;28;20476;-71
2023/05/22 12:21:40;;;;;;;7.23;6.57;;;32.40;99.60;;;;;;5029381;28;20464;-71
2023/05/22 12:24:08;;;;;;;6.60;6.00;;;32.30;96.90;;;;;;5029747;28;21185;-71
2023/05/22 12:26:35;;;;;;;6.60;6.00;;;32.00;98.60;;;;;;5025892;28;20480;-71
2023/05/22 12:29:04;;;;;;;7.07;6.37;;;31.80;98.60;;;;;;5008757;28;20548;-71
2023/05/22 12:31:35;;;;;;;6.83;6.23;;;31.60;98.10;;;;;;5010183;28;20457;-71
2023/05/22 12:34:04;;;;;;;6.40;5.80;;;31.70;99.70;;;;;;5009916;28;21019;-71
2023/05/22 12:36:35;;;;;;;6.97;6.30;;;31.80;98.00;;;;;;5009218;28;20540;-71
2023/05/22 12:39:02;;;;;;;6.97;6.37;;;31.90;99.00;;;;;;5008937;28;21005;-71
2023/05/22 12:41:28;;;;;;;6.60;5.80;;;32.10;99.10;;;;;;5026700;28;20567;-71
2023/05/22 12:43:55;;;;;;;6.77;6.17;;;32.20;98.20;;;;;;5029122;28;20460;-71
2023/05/22 12:46:23;;;;;;;6.67;6.10;;;32.20;97.50;;;;;;5010624;28;20540;-71
2023/05/22 12:48:50;;;;;;;7.77;6.87;;;32.30;98.40;;;;;;5004918;28;20464;-71
2023/05/22 12:51:17;;;;;;;5.70;5.20;;;32.40;99.10;;;;;;5028991;28;20469;-71